sensor_id;sensor_type;location;lat;lon;timestamp;P1;durP1;ratioP1;P2;durP2;ratioP2
72575;SDS011;60613;48.658;2.328;2023-04-23T06:02:37;2.00;;;0.80;;
72575;SDS011;60613;48.658;2.328;2023-04-23T06:05:04;2.47;;;0.80;;
72575;SDS011;60613;48.658;2.328;2023-04-23T06:07:30;3.58;;;0.85;;
72575;SDS011;60613;48.658;2.328;2023-04-23T06:09:56;3.15;;;0.82;;
72575;SDS011;60613;48.658;2.328;2023-04-23T06:12:21;3.10;;;1.00;;
72575;SDS011;60613;48.658;2.328;2023-04-23T06:14:47;3.17;;;0.80;;
72575;SDS011;60613;48.658;2.328;2023-04-23T06:17:13;3.43;;;0.80;;
72575;SDS011;60613;48.658;2.328;2023-04-23T06:19:38;2.53;;;0.80;;
72575;SDS011;60613;48.658;2.328;2023-04-23T06:22:04;2.60;;;0.85;;
72575;SDS011;60613;48.658;2.328;2023-04-23T06:24:30;2.63;;;0.80;;
72575;SDS011;60613;48.658;2.328;2023-04-23T06:26:56;2.90;;;0.70;;
72575;SDS011;60613;48.658;2.328;2023-04-23T06:29:21;2.23;;;0.70;;
72575;SDS011;60613;48.658;2.328;2023-04-23T06:31:47;2.55;;;0.80;;
72575;SDS011;60613;48.658;2.328;2023-04-23T06:34:13;4.33;;;0.93;;
72575;SDS011;60613;48.658;2.328;2023-04-23T06:36:38;2.80;;;0.80;;
72575;SDS011;60613;48.658;2.328;2023-04-23T06:39:04;3.50;;;0.90;;
72575;SDS011;60613;48.658;2.328;2023-04-23T06:41:30;2.58;;;0.80;;
72575;SDS011;60613;48.658;2.328;2023-04-23T06:43:55;2.33;;;0.90;;
72575;SDS011;60613;48.658;2.328;2023-04-23T06:46:21;2.28;;;0.80;;
72575;SDS011;60613;48.658;2.328;2023-04-23T06:48:47;2.03;;;0.80;;
72575;SDS011;60613;48.658;2.328;2023-04-23T06:51:13;2.53;;;0.87;;
72575;SDS011;60613;48.658;2.328;2023-04-23T06:53:39;2.27;;;0.80;;
72575;SDS011;60613;48.658;2.328;2023-04-23T06:56:04;2.45;;;0.75;;
72575;SDS011;60613;48.658;2.328;2023-04-23T06:58:31;3.33;;;0.88;;
72575;SDS011;60613;48.658;2.328;2023-04-23T07:00:57;3.23;;;0.87;;
72575;SDS011;60613;48.658;2.328;2023-04-23T07:03:31;3.38;;;0.90;;
72575;SDS011;60613;48.658;2.328;2023-04-23T07:05:57;4.65;;;0.90;;
72575;SDS011;60613;48.658;2.328;2023-04-23T07:08:22;3.23;;;0.80;;
72575;SDS011;60613;48.658;2.328;2023-04-23T07:10:48;3.45;;;1.00;;
72575;SDS011;60613;48.658;2.328;2023-04-23T07:13:14;3.13;;;1.03;;
72575;SDS011;60613;48.658;2.328;2023-04-23T07:15:40;3.38;;;1.00;;
72575;SDS011;60613;48.658;2.328;2023-04-23T07:18:06;3.40;;;0.85;;
72575;SDS011;60613;48.658;2.328;2023-04-23T07:20:32;3.90;;;1.10;;
72575;SDS011;60613;48.658;2.328;2023-04-23T07:22:58;4.33;;;1.00;;
72575;SDS011;60613;48.658;2.328;2023-04-23T07:25:24;5.57;;;1.45;;
72575;SDS011;60613;48.658;2.328;2023-04-23T07:27:51;3.90;;;1.10;;
72575;SDS011;60613;48.658;2.328;2023-04-23T07:30:18;4.40;;;1.20;;
72575;SDS011;60613;48.658;2.328;2023-04-23T07:32:44;3.30;;;1.20;;
72575;SDS011;60613;48.658;2.328;2023-04-23T07:35:10;4.65;;;1.40;;
72575;SDS011;60613;48.658;2.328;2023-04-23T07:37:36;4.47;;;1.25;;
72575;SDS011;60613;48.658;2.328;2023-04-23T07:40:02;5.78;;;1.30;;
72575;SDS011;60613;48.658;2.328;2023-04-23T07:42:29;5.57;;;1.60;;
72575;SDS011;60613;48.658;2.328;2023-04-23T07:44:55;5.18;;;1.30;;
72575;SDS011;60613;48.658;2.328;2023-04-23T07:47:21;5.75;;;1.52;;
72575;SDS011;60613;48.658;2.328;2023-04-23T07:49:47;5.17;;;1.60;;
72575;SDS011;60613;48.658;2.328;2023-04-23T07:52:12;5.60;;;1.40;;
72575;SDS011;60613;48.658;2.328;2023-04-23T07:54:39;7.60;;;1.47;;
72575;SDS011;60613;48.658;2.328;2023-04-23T07:57:05;4.50;;;1.40;;
72575;SDS011;60613;48.658;2.328;2023-04-23T07:59:31;6.40;;;1.55;;
72575;SDS011;60613;48.658;2.328;2023-04-23T08:01:56;5.37;;;1.53;;
72575;SDS011;60613;48.658;2.328;2023-04-23T08:04:22;4.70;;;1.65;;
72575;SDS011;60613;48.658;2.328;2023-04-23T08:06:47;6.07;;;1.60;;
72575;SDS011;60613;48.658;2.328;2023-04-23T08:09:13;5.53;;;1.45;;
72575;SDS011;60613;48.658;2.328;2023-04-23T08:11:39;5.80;;;1.83;;
72575;SDS011;60613;48.658;2.328;2023-04-23T08:14:05;6.03;;;1.77;;
72575;SDS011;60613;48.658;2.328;2023-04-23T08:16:31;5.17;;;1.80;;
72575;SDS011;60613;48.658;2.328;2023-04-23T08:18:57;5.78;;;1.60;;
72575;SDS011;60613;48.658;2.328;2023-04-23T08:21:23;6.60;;;1.47;;
72575;SDS011;60613;48.658;2.328;2023-04-23T08:23:50;6.53;;;1.75;;
72575;SDS011;60613;48.658;2.328;2023-04-23T08:26:16;5.75;;;1.88;;
72575;SDS011;60613;48.658;2.328;2023-04-23T08:28:42;6.95;;;1.60;;
72575;SDS011;60613;48.658;2.328;2023-04-23T08:31:08;6.67;;;1.50;;
72575;SDS011;60613;48.658;2.328;2023-04-23T08:33:33;6.93;;;1.60;;
72575;SDS011;60613;48.658;2.328;2023-04-23T08:35:59;5.78;;;1.70;;
72575;SDS011;60613;48.658;2.328;2023-04-23T08:38:25;7.22;;;1.60;;
72575;SDS011;60613;48.658;2.328;2023-04-23T08:40:52;4.70;;;1.60;;
72575;SDS011;60613;48.658;2.328;2023-04-23T08:43:22;6.07;;;1.60;;
72575;SDS011;60613;48.658;2.328;2023-04-23T08:45:55;4.93;;;1.67;;
72575;SDS011;60613;48.658;2.328;2023-04-23T08:48:26;8.57;;;1.60;;
72575;SDS011;60613;48.658;2.328;2023-04-23T08:50:53;5.10;;;1.57;;
72575;SDS011;60613;48.658;2.328;2023-04-23T08:53:20;6.18;;;1.58;;
72575;SDS011;60613;48.658;2.328;2023-04-23T08:55:49;6.30;;;1.50;;
72575;SDS011;60613;48.658;2.328;2023-04-23T08:58:16;5.10;;;1.63;;
72575;SDS011;60613;48.658;2.328;2023-04-23T09:00:42;5.80;;;1.50;;
72575;SDS011;60613;48.658;2.328;2023-04-23T09:03:09;4.50;;;1.57;;
72575;SDS011;60613;48.658;2.328;2023-04-23T09:05:35;5.95;;;1.60;;
72575;SDS011;60613;48.658;2.328;2023-04-23T09:08:01;5.30;;;1.60;;
72575;SDS011;60613;48.658;2.328;2023-04-23T09:10:27;5.80;;;1.60;;
72575;SDS011;60613;48.658;2.328;2023-04-23T09:12:53;5.07;;;1.52;;
72575;SDS011;60613;48.658;2.328;2023-04-23T09:15:18;4.93;;;1.37;;
72575;SDS011;60613;48.658;2.328;2023-04-23T09:17:45;6.22;;;1.70;;
72575;SDS011;60613;48.658;2.328;2023-04-23T09:20:11;5.43;;;1.40;;
72575;SDS011;60613;48.658;2.328;2023-04-23T09:25:05;5.17;;;1.50;;
72575;SDS011;60613;48.658;2.328;2023-04-23T09:27:36;5.25;;;1.30;;
72575;SDS011;60613;48.658;2.328;2023-04-23T09:30:06;4.55;;;1.40;;
72575;SDS011;60613;48.658;2.328;2023-04-23T09:32:34;4.50;;;1.40;;
72575;SDS011;60613;48.658;2.328;2023-04-23T09:35:05;4.03;;;1.30;;
72575;SDS011;60613;48.658;2.328;2023-04-23T09:37:33;5.27;;;1.37;;
72575;SDS011;60613;48.658;2.328;2023-04-23T09:39:59;3.90;;;1.40;;
72575;SDS011;60613;48.658;2.328;2023-04-23T09:42:26;3.60;;;1.30;;
72575;SDS011;60613;48.658;2.328;2023-04-23T09:44:56;4.72;;;1.40;;
72575;SDS011;60613;48.658;2.328;2023-04-23T09:47:24;4.10;;;1.40;;
72575;SDS011;60613;48.658;2.328;2023-04-23T09:49:50;4.00;;;1.20;;
72575;SDS011;60613;48.658;2.328;2023-04-23T09:52:15;4.38;;;1.50;;
72575;SDS011;60613;48.658;2.328;2023-04-23T09:54:42;3.88;;;1.35;;
72575;SDS011;60613;48.658;2.328;2023-04-23T09:57:10;6.37;;;1.37;;
72575;SDS011;60613;48.658;2.328;2023-04-23T09:59:36;3.03;;;1.20;;
72575;SDS011;60613;48.658;2.328;2023-04-23T10:02:03;6.07;;;1.70;;
72575;SDS011;60613;48.658;2.328;2023-04-23T10:04:30;4.90;;;1.40;;
72575;SDS011;60613;48.658;2.328;2023-04-23T10:06:57;4.82;;;1.42;;
72575;SDS011;60613;48.658;2.328;2023-04-23T10:09:25;3.47;;;1.50;;
72575;SDS011;60613;48.658;2.328;2023-04-23T10:11:53;4.05;;;1.30;;
72575;SDS011;60613;48.658;2.328;2023-04-23T10:14:23;3.95;;;1.50;;
72575;SDS011;60613;48.658;2.328;2023-04-23T10:16:51;4.90;;;1.27;;
72575;SDS011;60613;48.658;2.328;2023-04-23T10:19:22;4.13;;;1.60;;
72575;SDS011;60613;48.658;2.328;2023-04-23T10:21:50;4.57;;;1.50;;
72575;SDS011;60613;48.658;2.328;2023-04-23T10:24:24;3.25;;;1.40;;
72575;SDS011;60613;48.658;2.328;2023-04-23T10:26:58;3.50;;;1.50;;
72575;SDS011;60613;48.658;2.328;2023-04-23T10:29:28;4.63;;;1.47;;
72575;SDS011;60613;48.658;2.328;2023-04-23T10:32:01;3.50;;;1.33;;
72575;SDS011;60613;48.658;2.328;2023-04-23T10:34:28;4.47;;;1.50;;
72575;SDS011;60613;48.658;2.328;2023-04-23T10:36:55;3.75;;;1.27;;
72575;SDS011;60613;48.658;2.328;2023-04-23T10:39:24;4.15;;;1.25;;
72575;SDS011;60613;48.658;2.328;2023-04-23T10:41:51;5.10;;;1.50;;
72575;SDS011;60613;48.658;2.328;2023-04-23T10:44:19;4.30;;;1.48;;
72575;SDS011;60613;48.658;2.328;2023-04-23T10:46:51;4.40;;;1.40;;
72575;SDS011;60613;48.658;2.328;2023-04-23T10:49:18;4.13;;;1.40;;
72575;SDS011;60613;48.658;2.328;2023-04-23T10:51:46;3.75;;;1.20;;
72575;SDS011;60613;48.658;2.328;2023-04-23T10:54:15;4.27;;;1.23;;
72575;SDS011;60613;48.658;2.328;2023-04-23T10:56:43;4.38;;;1.33;;
72575;SDS011;60613;48.658;2.328;2023-04-23T10:59:21;5.95;;;1.50;;
72575;SDS011;60613;48.658;2.328;2023-04-23T11:01:47;4.50;;;1.20;;
72575;SDS011;60613;48.658;2.328;2023-04-23T11:04:21;3.90;;;1.20;;
72575;SDS011;60613;48.658;2.328;2023-04-23T11:06:52;5.25;;;1.38;;
72575;SDS011;60613;48.658;2.328;2023-04-23T11:11:54;5.20;;;1.20;;
72575;SDS011;60613;48.658;2.328;2023-04-23T11:14:45;4.43;;;1.30;;
72575;SDS011;60613;48.658;2.328;2023-04-23T11:17:11;4.60;;;1.42;;
72575;SDS011;60613;48.658;2.328;2023-04-23T11:19:38;4.78;;;1.27;;
72575;SDS011;60613;48.658;2.328;2023-04-23T11:22:14;3.38;;;1.15;;
72575;SDS011;60613;48.658;2.328;2023-04-23T11:24:42;3.60;;;1.20;;
72575;SDS011;60613;48.658;2.328;2023-04-23T11:27:12;4.10;;;1.17;;
72575;SDS011;60613;48.658;2.328;2023-04-23T11:29:41;4.43;;;1.30;;
72575;SDS011;60613;48.658;2.328;2023-04-23T11:32:09;3.45;;;1.20;;
72575;SDS011;60613;48.658;2.328;2023-04-23T11:34:40;5.93;;;1.30;;
72575;SDS011;60613;48.658;2.328;2023-04-23T11:37:11;3.50;;;1.27;;
72575;SDS011;60613;48.658;2.328;2023-04-23T11:39:42;5.67;;;1.20;;
72575;SDS011;60613;48.658;2.328;2023-04-23T11:42:12;4.07;;;1.30;;
72575;SDS011;60613;48.658;2.328;2023-04-23T11:44:38;5.10;;;1.40;;
72575;SDS011;60613;48.658;2.328;2023-04-23T11:47:09;5.10;;;1.13;;
72575;SDS011;60613;48.658;2.328;2023-04-23T11:49:43;4.15;;;1.20;;
72575;SDS011;60613;48.658;2.328;2023-04-23T11:52:09;4.63;;;1.40;;
72575;SDS011;60613;48.658;2.328;2023-04-23T11:54:35;3.30;;;1.10;;
72575;SDS011;60613;48.658;2.328;2023-04-23T11:57:01;3.20;;;1.20;;
72575;SDS011;60613;48.658;2.328;2023-04-23T11:59:28;3.35;;;1.13;;
72575;SDS011;60613;48.658;2.328;2023-04-23T12:01:58;3.40;;;1.20;;
72575;SDS011;60613;48.658;2.328;2023-04-23T12:04:25;2.30;;;1.00;;
72575;SDS011;60613;48.658;2.328;2023-04-23T12:06:52;3.40;;;1.10;;
72575;SDS011;60613;48.658;2.328;2023-04-23T12:09:19;4.50;;;1.20;;
72575;SDS011;60613;48.658;2.328;2023-04-23T12:11:47;3.33;;;1.00;;
72575;SDS011;60613;48.658;2.328;2023-04-23T12:14:17;3.27;;;1.00;;
72575;SDS011;60613;48.658;2.328;2023-04-23T12:16:46;3.03;;;1.20;;
72575;SDS011;60613;48.658;2.328;2023-04-23T12:19:17;4.18;;;1.00;;
72575;SDS011;60613;48.658;2.328;2023-04-23T12:21:48;2.90;;;1.00;;
72575;SDS011;60613;48.658;2.328;2023-04-23T12:24:15;2.75;;;0.88;;
72575;SDS011;60613;48.658;2.328;2023-04-23T12:26:41;3.47;;;1.00;;
72575;SDS011;60613;48.658;2.328;2023-04-23T12:29:11;2.88;;;0.90;;
72575;SDS011;60613;48.658;2.328;2023-04-23T12:31:37;3.15;;;0.90;;
72575;SDS011;60613;48.658;2.328;2023-04-23T12:34:03;1.83;;;0.90;;
72575;SDS011;60613;48.658;2.328;2023-04-23T12:36:30;2.40;;;0.90;;
72575;SDS011;60613;48.658;2.328;2023-04-23T12:42:04;2.75;;;0.93;;
72575;SDS011;60613;48.658;2.328;2023-04-23T12:44:35;3.87;;;0.90;;
72575;SDS011;60613;48.658;2.328;2023-04-23T12:47:03;2.45;;;0.73;;
72575;SDS011;60613;48.658;2.328;2023-04-23T12:49:33;2.33;;;1.00;;
72575;SDS011;60613;48.658;2.328;2023-04-23T12:52:00;2.53;;;0.70;;
72575;SDS011;60613;48.658;2.328;2023-04-23T12:54:27;2.15;;;0.90;;
72575;SDS011;60613;48.658;2.328;2023-04-23T12:56:55;2.73;;;0.77;;
72575;SDS011;60613;48.658;2.328;2023-04-23T12:59:21;3.25;;;0.80;;
72575;SDS011;60613;48.658;2.328;2023-04-23T13:01:47;2.58;;;0.70;;
72575;SDS011;60613;48.658;2.328;2023-04-23T13:04:14;3.40;;;0.60;;
72575;SDS011;60613;48.658;2.328;2023-04-23T13:06:40;1.87;;;0.60;;
72575;SDS011;60613;48.658;2.328;2023-04-23T13:09:07;2.70;;;0.70;;
72575;SDS011;60613;48.658;2.328;2023-04-23T13:11:34;1.98;;;0.70;;
72575;SDS011;60613;48.658;2.328;2023-04-23T13:14:01;1.55;;;0.70;;
72575;SDS011;60613;48.658;2.328;2023-04-23T13:16:26;2.33;;;0.70;;
72575;SDS011;60613;48.658;2.328;2023-04-23T13:18:53;2.70;;;0.52;;
72575;SDS011;60613;48.658;2.328;2023-04-23T13:21:19;1.55;;;0.60;;
72575;SDS011;60613;48.658;2.328;2023-04-23T13:23:44;1.97;;;0.60;;
72575;SDS011;60613;48.658;2.328;2023-04-23T13:26:10;1.92;;;0.50;;
72575;SDS011;60613;48.658;2.328;2023-04-23T13:28:36;1.80;;;0.60;;
72575;SDS011;60613;48.658;2.328;2023-04-23T13:31:02;2.33;;;0.50;;
72575;SDS011;60613;48.658;2.328;2023-04-23T13:33:28;2.75;;;0.60;;
72575;SDS011;60613;48.658;2.328;2023-04-23T13:35:55;2.23;;;0.60;;
72575;SDS011;60613;48.658;2.328;2023-04-23T13:38:22;1.70;;;0.50;;
72575;SDS011;60613;48.658;2.328;2023-04-23T13:40:49;1.45;;;0.52;;
72575;SDS011;60613;48.658;2.328;2023-04-23T13:43:14;1.40;;;0.50;;
72575;SDS011;60613;48.658;2.328;2023-04-23T13:45:40;1.33;;;0.57;;
72575;SDS011;60613;48.658;2.328;2023-04-23T13:48:05;2.33;;;0.57;;
72575;SDS011;60613;48.658;2.328;2023-04-23T13:50:32;2.75;;;0.70;;
72575;SDS011;60613;48.658;2.328;2023-04-23T13:52:58;2.05;;;0.65;;
72575;SDS011;60613;48.658;2.328;2023-04-23T13:55:24;2.97;;;0.70;;
72575;SDS011;60613;48.658;2.328;2023-04-23T13:57:50;2.30;;;0.50;;
72575;SDS011;60613;48.658;2.328;2023-04-23T14:00:16;3.47;;;0.50;;
72575;SDS011;60613;48.658;2.328;2023-04-23T14:02:42;3.42;;;0.88;;
72575;SDS011;60613;48.658;2.328;2023-04-23T14:05:07;3.27;;;0.70;;
72575;SDS011;60613;48.658;2.328;2023-04-23T14:07:34;2.47;;;0.60;;
72575;SDS011;60613;48.658;2.328;2023-04-23T14:10:00;3.00;;;0.70;;
72575;SDS011;60613;48.658;2.328;2023-04-23T14:12:26;3.20;;;0.60;;
72575;SDS011;60613;48.658;2.328;2023-04-23T14:14:53;4.30;;;0.73;;
72575;SDS011;60613;48.658;2.328;2023-04-23T14:17:19;3.30;;;0.80;;
72575;SDS011;60613;48.658;2.328;2023-04-23T14:19:45;3.70;;;0.70;;
72575;SDS011;60613;48.658;2.328;2023-04-23T14:22:11;2.35;;;0.50;;
72575;SDS011;60613;48.658;2.328;2023-04-23T14:24:43;2.30;;;0.60;;
72575;SDS011;60613;48.658;2.328;2023-04-23T14:27:10;3.15;;;0.68;;
72575;SDS011;60613;48.658;2.328;2023-04-23T14:32:14;2.20;;;0.47;;
72575;SDS011;60613;48.658;2.328;2023-04-23T14:34:40;3.78;;;0.70;;
72575;SDS011;60613;48.658;2.328;2023-04-23T14:37:05;2.63;;;0.60;;
72575;SDS011;60613;48.658;2.328;2023-04-23T14:39:32;3.33;;;0.50;;
72575;SDS011;60613;48.658;2.328;2023-04-23T14:41:58;4.85;;;0.70;;
72575;SDS011;60613;48.658;2.328;2023-04-23T14:44:24;1.90;;;0.47;;
72575;SDS011;60613;48.658;2.328;2023-04-23T14:46:51;2.03;;;0.50;;
72575;SDS011;60613;48.658;2.328;2023-04-23T14:49:17;3.75;;;0.60;;
72575;SDS011;60613;48.658;2.328;2023-04-23T14:51:45;4.20;;;0.80;;
72575;SDS011;60613;48.658;2.328;2023-04-23T14:54:11;3.47;;;0.50;;
72575;SDS011;60613;48.658;2.328;2023-04-23T14:56:37;2.27;;;0.47;;
72575;SDS011;60613;48.658;2.328;2023-04-23T14:59:02;2.40;;;0.65;;
72575;SDS011;60613;48.658;2.328;2023-04-23T15:01:28;2.37;;;0.50;;
72575;SDS011;60613;48.658;2.328;2023-04-23T15:03:54;3.38;;;0.70;;
72575;SDS011;60613;48.658;2.328;2023-04-23T15:06:20;4.23;;;0.50;;
72575;SDS011;60613;48.658;2.328;2023-04-23T15:08:46;2.90;;;0.70;;
72575;SDS011;60613;48.658;2.328;2023-04-23T15:11:12;2.13;;;0.47;;
72575;SDS011;60613;48.658;2.328;2023-04-23T15:16:29;1.73;;;0.47;;
72575;SDS011;60613;48.658;2.328;2023-04-23T15:18:56;2.55;;;0.60;;
72575;SDS011;60613;48.658;2.328;2023-04-23T15:21:23;1.33;;;0.40;;
72575;SDS011;60613;48.658;2.328;2023-04-23T15:23:49;3.67;;;0.50;;
72575;SDS011;60613;48.658;2.328;2023-04-23T15:26:15;2.97;;;0.53;;
72575;SDS011;60613;48.658;2.328;2023-04-23T15:28:40;4.38;;;0.75;;
72575;SDS011;60613;48.658;2.328;2023-04-23T15:31:06;4.47;;;0.68;;
72575;SDS011;60613;48.658;2.328;2023-04-23T15:33:32;1.97;;;0.47;;
72575;SDS011;60613;48.658;2.328;2023-04-23T15:35:58;2.87;;;0.57;;
72575;SDS011;60613;48.658;2.328;2023-04-23T15:38:23;1.95;;;0.45;;
72575;SDS011;60613;48.658;2.328;2023-04-23T15:40:49;2.10;;;0.50;;
72575;SDS011;60613;48.658;2.328;2023-04-23T15:43:15;3.83;;;0.68;;
72575;SDS011;60613;48.658;2.328;2023-04-23T15:45:41;3.87;;;0.70;;
72575;SDS011;60613;48.658;2.328;2023-04-23T15:48:07;3.00;;;0.50;;
72575;SDS011;60613;48.658;2.328;2023-04-23T15:50:33;3.42;;;0.70;;
72575;SDS011;60613;48.658;2.328;2023-04-23T15:52:59;3.10;;;0.70;;
72575;SDS011;60613;48.658;2.328;2023-04-23T15:55:26;1.67;;;0.40;;
72575;SDS011;60613;48.658;2.328;2023-04-23T15:57:52;2.23;;;0.53;;
72575;SDS011;60613;48.658;2.328;2023-04-23T16:00:18;3.03;;;0.70;;
72575;SDS011;60613;48.658;2.328;2023-04-23T16:02:44;1.50;;;0.50;;
72575;SDS011;60613;48.658;2.328;2023-04-23T16:05:09;3.47;;;0.50;;
72575;SDS011;60613;48.658;2.328;2023-04-23T16:07:38;2.85;;;0.40;;
72575;SDS011;60613;48.658;2.328;2023-04-23T16:10:04;2.55;;;0.52;;
72575;SDS011;60613;48.658;2.328;2023-04-23T16:12:31;3.23;;;0.40;;
72575;SDS011;60613;48.658;2.328;2023-04-23T16:14:57;3.63;;;0.70;;
72575;SDS011;60613;48.658;2.328;2023-04-23T16:17:23;4.85;;;0.80;;
72575;SDS011;60613;48.658;2.328;2023-04-23T16:19:51;3.05;;;0.90;;
72575;SDS011;60613;48.658;2.328;2023-04-23T16:22:17;6.00;;;1.93;;
72575;SDS011;60613;48.658;2.328;2023-04-23T16:24:42;5.93;;;2.00;;
72575;SDS011;60613;48.658;2.328;2023-04-23T16:27:08;6.13;;;2.30;;
72575;SDS011;60613;48.658;2.328;2023-04-23T16:29:35;6.85;;;2.30;;
72575;SDS011;60613;48.658;2.328;2023-04-23T16:32:01;6.00;;;2.83;;
72575;SDS011;60613;48.658;2.328;2023-04-23T16:34:27;7.50;;;3.20;;
72575;SDS011;60613;48.658;2.328;2023-04-23T16:36:53;6.90;;;3.15;;
72575;SDS011;60613;48.658;2.328;2023-04-23T16:39:18;7.63;;;2.83;;
72575;SDS011;60613;48.658;2.328;2023-04-23T16:41:44;7.32;;;3.08;;
72575;SDS011;60613;48.658;2.328;2023-04-23T16:44:09;8.17;;;2.87;;
72575;SDS011;60613;48.658;2.328;2023-04-23T16:46:35;7.80;;;3.60;;
72575;SDS011;60613;48.658;2.328;2023-04-23T16:49:01;7.88;;;3.67;;
72575;SDS011;60613;48.658;2.328;2023-04-23T16:51:27;8.77;;;4.00;;
72575;SDS011;60613;48.658;2.328;2023-04-23T16:53:53;10.73;;;4.33;;
72575;SDS011;60613;48.658;2.328;2023-04-23T16:56:20;9.63;;;4.07;;
72575;SDS011;60613;48.658;2.328;2023-04-23T16:58:46;10.43;;;4.70;;
72575;SDS011;60613;48.658;2.328;2023-04-23T17:01:12;9.50;;;5.23;;
72575;SDS011;60613;48.658;2.328;2023-04-23T17:03:37;9.57;;;5.05;;
72575;SDS011;60613;48.658;2.328;2023-04-23T17:06:07;9.23;;;4.80;;
72575;SDS011;60613;48.658;2.328;2023-04-23T17:08:44;8.63;;;4.65;;
72575;SDS011;60613;48.658;2.328;2023-04-23T17:11:10;8.75;;;4.85;;
72575;SDS011;60613;48.658;2.328;2023-04-23T17:13:35;10.07;;;4.50;;
72575;SDS011;60613;48.658;2.328;2023-04-23T17:16:01;11.27;;;4.78;;
72575;SDS011;60613;48.658;2.328;2023-04-23T17:18:27;8.80;;;4.70;;
72575;SDS011;60613;48.658;2.328;2023-04-23T17:20:53;12.13;;;6.00;;
72575;SDS011;60613;48.658;2.328;2023-04-23T17:23:18;10.40;;;5.75;;
72575;SDS011;60613;48.658;2.328;2023-04-23T17:25:44;12.25;;;6.70;;
72575;SDS011;60613;48.658;2.328;2023-04-23T17:28:10;12.57;;;7.87;;
72575;SDS011;60613;48.658;2.328;2023-04-23T17:30:36;12.52;;;6.88;;
72575;SDS011;60613;48.658;2.328;2023-04-23T17:33:02;13.60;;;7.23;;
72575;SDS011;60613;48.658;2.328;2023-04-23T17:35:27;9.70;;;6.15;;
72575;SDS011;60613;48.658;2.328;2023-04-23T17:37:53;13.47;;;6.13;;
72575;SDS011;60613;48.658;2.328;2023-04-23T17:40:18;12.60;;;6.28;;
72575;SDS011;60613;48.658;2.328;2023-04-23T17:42:44;11.60;;;6.10;;
72575;SDS011;60613;48.658;2.328;2023-04-23T17:45:10;11.45;;;6.05;;
72575;SDS011;60613;48.658;2.328;2023-04-23T17:47:36;10.27;;;6.00;;
72575;SDS011;60613;48.658;2.328;2023-04-23T17:50:02;9.77;;;5.25;;
72575;SDS011;60613;48.658;2.328;2023-04-23T17:52:30;10.55;;;5.50;;
72575;SDS011;60613;48.658;2.328;2023-04-23T17:54:55;10.20;;;5.10;;
72575;SDS011;60613;48.658;2.328;2023-04-23T17:57:21;10.13;;;4.47;;
72575;SDS011;60613;48.658;2.328;2023-04-23T17:59:47;10.10;;;4.77;;
72575;SDS011;60613;48.658;2.328;2023-04-23T18:02:12;9.10;;;4.10;;
72575;SDS011;60613;48.658;2.328;2023-04-23T18:04:38;7.87;;;4.17;;
72575;SDS011;60613;48.658;2.328;2023-04-23T18:07:03;9.45;;;3.92;;
72575;SDS011;60613;48.658;2.328;2023-04-23T18:09:30;8.17;;;3.80;;
72575;SDS011;60613;48.658;2.328;2023-04-23T18:11:55;7.47;;;3.63;;
72575;SDS011;60613;48.658;2.328;2023-04-23T18:14:22;7.55;;;3.20;;
72575;SDS011;60613;48.658;2.328;2023-04-23T18:16:49;7.67;;;3.30;;
72575;SDS011;60613;48.658;2.328;2023-04-23T18:19:14;7.45;;;3.60;;
72575;SDS011;60613;48.658;2.328;2023-04-23T18:21:40;6.75;;;2.55;;
72575;SDS011;60613;48.658;2.328;2023-04-23T18:24:08;7.70;;;3.10;;
72575;SDS011;60613;48.658;2.328;2023-04-23T18:26:34;8.70;;;2.70;;
72575;SDS011;60613;48.658;2.328;2023-04-23T18:29:00;7.27;;;2.87;;
72575;SDS011;60613;48.658;2.328;2023-04-23T18:31:25;7.85;;;2.90;;
72575;SDS011;60613;48.658;2.328;2023-04-23T18:33:51;6.30;;;2.60;;
72575;SDS011;60613;48.658;2.328;2023-04-23T18:36:29;6.55;;;2.63;;
72575;SDS011;60613;48.658;2.328;2023-04-23T18:38:56;7.22;;;2.40;;
72575;SDS011;60613;48.658;2.328;2023-04-23T18:41:22;6.38;;;2.25;;
72575;SDS011;60613;48.658;2.328;2023-04-23T18:43:47;5.27;;;2.00;;
72575;SDS011;60613;48.658;2.328;2023-04-23T18:46:13;7.15;;;2.42;;
72575;SDS011;60613;48.658;2.328;2023-04-23T18:49:03;6.27;;;2.20;;
72575;SDS011;60613;48.658;2.328;2023-04-23T18:51:41;5.72;;;1.95;;
72575;SDS011;60613;48.658;2.328;2023-04-23T18:54:08;6.03;;;2.00;;
72575;SDS011;60613;48.658;2.328;2023-04-23T18:56:33;5.55;;;1.80;;
72575;SDS011;60613;48.658;2.328;2023-04-23T18:58:59;5.63;;;2.00;;
